sensor_id;sensor_type;location;lat;lon;timestamp;pressure;altitude;pressure_sealevel;temperature;humidity
34983;BME280;21187;50.976;13.720;2022-09-16T00:01:33;97345.09;;;16.08;53.12
34983;BME280;21187;50.976;13.720;2022-09-16T00:06:35;97350.97;;;16.06;53.28
34983;BME280;21187;50.976;13.720;2022-09-16T00:11:37;97350.59;;;16.04;53.36
34983;BME280;21187;50.976;13.720;2022-09-16T00:16:39;97344.41;;;16.00;53.43
34983;BME280;21187;50.976;13.720;2022-09-16T00:21:41;97346.03;;;15.94;53.58
34983;BME280;21187;50.976;13.720;2022-09-16T00:26:43;97350.00;;;15.86;53.42
34983;BME280;21187;50.976;13.720;2022-09-16T00:31:45;97355.13;;;15.80;54.00
34983;BME280;21187;50.976;13.720;2022-09-16T00:36:47;97360.19;;;15.82;53.83
34983;BME280;21187;50.976;13.720;2022-09-16T00:41:49;97353.16;;;15.80;53.66
34983;BME280;21187;50.976;13.720;2022-09-16T00:46:52;97347.75;;;15.73;53.84
34983;BME280;21187;50.976;13.720;2022-09-16T00:52:02;97358.69;;;15.73;53.86
34983;BME280;21187;50.976;13.720;2022-09-16T00:57:07;97365.75;;;15.67;54.17
34983;BME280;21187;50.976;13.720;2022-09-16T01:02:15;97361.53;;;15.59;54.36
34983;BME280;21187;50.976;13.720;2022-09-16T01:07:43;97356.50;;;15.54;54.33
34983;BME280;21187;50.976;13.720;2022-09-16T01:12:47;97351.47;;;15.52;54.52
34983;BME280;21187;50.976;13.720;2022-09-16T01:18:02;97353.41;;;15.52;54.42
34983;BME280;21187;50.976;13.720;2022-09-16T01:44:58;97368.69;;;15.38;54.63
34983;BME280;21187;50.976;13.720;2022-09-16T01:55:41;97370.28;;;15.36;54.66
34983;BME280;21187;50.976;13.720;2022-09-16T02:00:50;97378.75;;;15.48;54.43
34983;BME280;21187;50.976;13.720;2022-09-16T02:05:55;97364.69;;;15.54;54.46
34983;BME280;21187;50.976;13.720;2022-09-16T02:11:01;97371.31;;;15.53;54.67
34983;BME280;21187;50.976;13.720;2022-09-16T02:16:35;97375.19;;;15.59;54.41
34983;BME280;21187;50.976;13.720;2022-09-16T02:21:40;97360.28;;;15.67;54.42
34983;BME280;21187;50.976;13.720;2022-09-16T02:26:53;97359.44;;;15.74;54.22
34983;BME280;21187;50.976;13.720;2022-09-16T02:31:57;97366.44;;;15.78;54.20
34983;BME280;21187;50.976;13.720;2022-09-16T02:37:05;97373.50;;;15.72;54.56
34983;BME280;21187;50.976;13.720;2022-09-16T02:42:09;97371.28;;;15.60;54.76
34983;BME280;21187;50.976;13.720;2022-09-16T02:58:06;97370.59;;;15.48;55.14
34983;BME280;21187;50.976;13.720;2022-09-16T03:03:08;97373.66;;;15.54;54.85
34983;BME280;21187;50.976;13.720;2022-09-16T03:08:10;97375.63;;;15.54;55.16
34983;BME280;21187;50.976;13.720;2022-09-16T03:13:21;97357.31;;;15.51;55.27
34983;BME280;21187;50.976;13.720;2022-09-16T03:34:19;97353.41;;;15.52;55.30
34983;BME280;21187;50.976;13.720;2022-09-16T03:39:21;97352.66;;;15.47;55.44
34983;BME280;21187;50.976;13.720;2022-09-16T03:44:31;97358.91;;;15.44;55.39
34983;BME280;21187;50.976;13.720;2022-09-16T03:49:34;97357.38;;;15.43;55.13
34983;BME280;21187;50.976;13.720;2022-09-16T03:54:37;97357.38;;;15.43;55.09
34983;BME280;21187;50.976;13.720;2022-09-16T03:59:39;97354.66;;;15.40;55.31
34983;BME280;21187;50.976;13.720;2022-09-16T04:04:42;97350.53;;;15.21;55.57
34983;BME280;21187;50.976;13.720;2022-09-16T04:09:44;97352.94;;;15.04;56.12
34983;BME280;21187;50.976;13.720;2022-09-16T04:14:46;97356.91;;;14.96;56.27
34983;BME280;21187;50.976;13.720;2022-09-16T04:19:48;97356.50;;;15.01;55.90
34983;BME280;21187;50.976;13.720;2022-09-16T04:24:50;97356.09;;;14.99;56.13
34983;BME280;21187;50.976;13.720;2022-09-16T04:29:52;97357.75;;;14.86;56.38
34983;BME280;21187;50.976;13.720;2022-09-16T04:34:54;97354.66;;;14.80;56.85
34983;BME280;21187;50.976;13.720;2022-09-16T04:39:55;97363.19;;;14.86;56.60
34983;BME280;21187;50.976;13.720;2022-09-16T04:45:05;97362.34;;;15.00;56.20
34983;BME280;21187;50.976;13.720;2022-09-16T04:50:07;97370.94;;;14.94;56.45
34983;BME280;21187;50.976;13.720;2022-09-16T04:55:10;97370.97;;;14.91;56.58
34983;BME280;21187;50.976;13.720;2022-09-16T05:00:12;97370.94;;;14.94;56.92
34983;BME280;21187;50.976;13.720;2022-09-16T05:05:14;97370.13;;;15.01;56.60
34983;BME280;21187;50.976;13.720;2022-09-16T05:10:17;97375.97;;;15.03;56.47
34983;BME280;21187;50.976;13.720;2022-09-16T05:15:19;97383.69;;;15.08;56.10
34983;BME280;21187;50.976;13.720;2022-09-16T05:20:21;97383.28;;;15.13;56.09
34983;BME280;21187;50.976;13.720;2022-09-16T05:25:23;97387.16;;;15.20;56.04
34983;BME280;21187;50.976;13.720;2022-09-16T05:30:25;97380.88;;;15.26;55.84
34983;BME280;21187;50.976;13.720;2022-09-16T05:35:27;97388.97;;;15.37;55.36
34983;BME280;21187;50.976;13.720;2022-09-16T05:40:29;97395.16;;;15.45;55.25
34983;BME280;21187;50.976;13.720;2022-09-16T05:45:31;97384.63;;;15.47;55.20
34983;BME280;21187;50.976;13.720;2022-09-16T05:50:33;97384.66;;;15.43;55.24
34983;BME280;21187;50.976;13.720;2022-09-16T05:55:35;97380.88;;;15.23;56.15
34983;BME280;21187;50.976;13.720;2022-09-16T06:00:36;97377.50;;;15.04;56.72
34983;BME280;21187;50.976;13.720;2022-09-16T06:05:38;97383.34;;;15.06;57.04
34983;BME280;21187;50.976;13.720;2022-09-16T06:10:46;97386.50;;;14.97;57.79
34983;BME280;21187;50.976;13.720;2022-09-16T06:15:49;97379.88;;;14.98;57.95
34983;BME280;21187;50.976;13.720;2022-09-16T06:20:52;97383.34;;;15.03;57.72
34983;BME280;21187;50.976;13.720;2022-09-16T06:26:08;97370.13;;;15.01;58.04
34983;BME280;21187;50.976;13.720;2022-09-16T06:31:12;97374.84;;;14.93;58.56
34983;BME280;21187;50.976;13.720;2022-09-16T06:36:17;97381.09;;;14.94;58.37
34983;BME280;21187;50.976;13.720;2022-09-16T06:41:20;97380.69;;;14.88;58.66
34983;BME280;21187;50.976;13.720;2022-09-16T06:46:25;97387.28;;;14.98;58.48
34983;BME280;21187;50.976;13.720;2022-09-16T06:51:29;97386.88;;;15.03;58.34
34983;BME280;21187;50.976;13.720;2022-09-16T06:56:32;97382.50;;;15.17;58.26
34983;BME280;21187;50.976;13.720;2022-09-16T07:01:38;97378.22;;;15.16;57.84
34983;BME280;21187;50.976;13.720;2022-09-16T07:06:40;97367.69;;;15.18;58.20
34983;BME280;21187;50.976;13.720;2022-09-16T07:12:03;97375.31;;;15.41;57.45
34983;BME280;21187;50.976;13.720;2022-09-16T07:17:05;97381.06;;;15.54;56.96
34983;BME280;21187;50.976;13.720;2022-09-16T07:22:09;97386.13;;;15.52;56.77
34983;BME280;21187;50.976;13.720;2022-09-16T07:27:12;97386.13;;;15.55;56.72
34983;BME280;21187;50.976;13.720;2022-09-16T07:32:14;97380.97;;;15.64;56.49
34983;BME280;21187;50.976;13.720;2022-09-16T07:37:16;97392.19;;;15.81;56.14
34983;BME280;21187;50.976;13.720;2022-09-16T07:42:20;97389.78;;;15.87;55.71
34983;BME280;21187;50.976;13.720;2022-09-16T07:47:24;97392.81;;;16.00;55.09
34983;BME280;21187;50.976;13.720;2022-09-16T07:52:26;97394.31;;;16.04;54.74
34983;BME280;21187;50.976;13.720;2022-09-16T07:57:29;97387.28;;;16.03;54.23
34983;BME280;21187;50.976;13.720;2022-09-16T08:02:31;97398.56;;;16.09;54.42
34983;BME280;21187;50.976;13.720;2022-09-16T08:07:33;97389.44;;;16.23;53.83
34983;BME280;21187;50.976;13.720;2022-09-16T08:12:35;97386.22;;;16.32;53.94
34983;BME280;21187;50.976;13.720;2022-09-16T08:17:37;97389.28;;;16.37;53.40
34983;BME280;21187;50.976;13.720;2022-09-16T08:22:39;97390.13;;;16.65;53.01
34983;BME280;21187;50.976;13.720;2022-09-16T08:27:41;97381.59;;;16.94;51.96
34983;BME280;21187;50.976;13.720;2022-09-16T08:32:43;97379.47;;;17.33;51.51
34983;BME280;21187;50.976;13.720;2022-09-16T08:37:45;97374.91;;;17.73;50.89
34983;BME280;21187;50.976;13.720;2022-09-16T08:43:11;97375.75;;;18.18;49.40
34983;BME280;21187;50.976;13.720;2022-09-16T08:48:40;97371.75;;;18.42;48.86
34983;BME280;21187;50.976;13.720;2022-09-16T08:58:50;97373.91;;;18.31;47.92
34983;BME280;21187;50.976;13.720;2022-09-16T09:03:54;97373.97;;;18.27;48.07
34983;BME280;21187;50.976;13.720;2022-09-16T09:25:46;97375.47;;;17.13;51.45
34983;BME280;21187;50.976;13.720;2022-09-16T09:31:16;97379.88;;;17.31;51.10
34983;BME280;21187;50.976;13.720;2022-09-16T09:41:43;97374.09;;;17.53;50.42
34983;BME280;21187;50.976;13.720;2022-09-16T09:46:52;97364.28;;;17.55;50.51
34983;BME280;21187;50.976;13.720;2022-09-16T09:52:13;97368.50;;;17.60;49.98
34983;BME280;21187;50.976;13.720;2022-09-16T10:02:25;97348.47;;;17.87;48.88
34983;BME280;21187;50.976;13.720;2022-09-16T10:07:27;97346.66;;;18.24;47.99
34983;BME280;21187;50.976;13.720;2022-09-16T10:12:34;97333.78;;;18.61;47.62
34983;BME280;21187;50.976;13.720;2022-09-16T10:17:36;97341.53;;;18.83;47.62
34983;BME280;21187;50.976;13.720;2022-09-16T10:22:38;97346.16;;;18.86;46.95
34983;BME280;21187;50.976;13.720;2022-09-16T10:27:40;97335.59;;;19.04;46.13
34983;BME280;21187;50.976;13.720;2022-09-16T10:38:12;97322.47;;;19.12;44.53
34983;BME280;21187;50.976;13.720;2022-09-16T10:43:18;97361.59;;;18.79;45.37
34983;BME280;21187;50.976;13.720;2022-09-16T10:48:23;97363.00;;;18.07;47.46
34983;BME280;21187;50.976;13.720;2022-09-16T10:53:38;97359.91;;;17.34;49.43
34983;BME280;21187;50.976;13.720;2022-09-16T10:58:45;97356.69;;;16.85;50.72
34983;BME280;21187;50.976;13.720;2022-09-16T11:14:32;97346.91;;;17.15;52.25
34983;BME280;21187;50.976;13.720;2022-09-16T11:30:16;97333.22;;;18.29;51.12
34983;BME280;21187;50.976;13.720;2022-09-16T11:41:01;97334.69;;;17.94;51.37
34983;BME280;21187;50.976;13.720;2022-09-16T11:51:46;97337.75;;;17.72;51.52
34983;BME280;21187;50.976;13.720;2022-09-16T11:56:57;97322.41;;;18.22;51.05
34983;BME280;21187;50.976;13.720;2022-09-16T12:12:55;97317.13;;;18.52;48.80
34983;BME280;21187;50.976;13.720;2022-09-16T12:18:16;97313.59;;;18.88;48.21
34983;BME280;21187;50.976;13.720;2022-09-16T12:23:23;97309.28;;;19.23;46.26
34983;BME280;21187;50.976;13.720;2022-09-16T12:34:09;97293.75;;;19.17;45.24
34983;BME280;21187;50.976;13.720;2022-09-16T12:39:12;97294.97;;;18.99;46.18
34983;BME280;21187;50.976;13.720;2022-09-16T13:00:49;97261.78;;;20.02;42.54
34983;BME280;21187;50.976;13.720;2022-09-16T13:05:54;97257.47;;;19.88;41.95
34983;BME280;21187;50.976;13.720;2022-09-16T13:11:01;97254.72;;;19.71;42.86
34983;BME280;21187;50.976;13.720;2022-09-16T13:16:35;97247.00;;;19.66;42.33
34983;BME280;21187;50.976;13.720;2022-09-16T13:21:39;97246.28;;;19.49;42.50
34983;BME280;21187;50.976;13.720;2022-09-16T13:26:45;97242.81;;;19.16;41.88
34983;BME280;21187;50.976;13.720;2022-09-16T13:31:47;97250.00;;;19.09;41.85
34983;BME280;21187;50.976;13.720;2022-09-16T13:36:49;97245.13;;;19.17;40.80
34983;BME280;21187;50.976;13.720;2022-09-16T13:41:51;97251.72;;;19.36;39.53
34983;BME280;21187;50.976;13.720;2022-09-16T13:46:53;97229.94;;;19.29;39.20
34983;BME280;21187;50.976;13.720;2022-09-16T13:51:55;97239.78;;;19.43;39.78
34983;BME280;21187;50.976;13.720;2022-09-16T13:57:15;97233.66;;;19.52;39.29
34983;BME280;21187;50.976;13.720;2022-09-16T14:07:58;97241.22;;;19.48;39.02
34983;BME280;21187;50.976;13.720;2022-09-16T14:13:12;97240.75;;;19.36;38.40
34983;BME280;21187;50.976;13.720;2022-09-16T14:18:17;97233.69;;;18.86;39.87
34983;BME280;21187;50.976;13.720;2022-09-16T14:23:23;97236.88;;;18.84;40.83
34983;BME280;21187;50.976;13.720;2022-09-16T14:28:26;97244.78;;;18.99;41.15
34983;BME280;21187;50.976;13.720;2022-09-16T14:34:23;97244.88;;;19.11;41.37
34983;BME280;21187;50.976;13.720;2022-09-16T14:39:10;97228.13;;;19.39;40.44
34983;BME280;21187;50.976;13.720;2022-09-16T14:49:20;97235.94;;;19.40;39.96
34983;BME280;21187;50.976;13.720;2022-09-16T14:54:24;97228.22;;;19.35;39.31
34983;BME280;21187;50.976;13.720;2022-09-16T14:59:38;97223.63;;;19.45;38.69
34983;BME280;21187;50.976;13.720;2022-09-16T15:04:44;97228.00;;;19.42;38.79
34983;BME280;21187;50.976;13.720;2022-09-16T15:09:57;97225.41;;;19.52;38.80
34983;BME280;21187;50.976;13.720;2022-09-16T15:15:22;97233.13;;;19.57;38.58
34983;BME280;21187;50.976;13.720;2022-09-16T15:20:28;97226.94;;;19.23;38.08
34983;BME280;21187;50.976;13.720;2022-09-16T15:25:33;97228.69;;;19.01;38.56
34983;BME280;21187;50.976;13.720;2022-09-16T15:30:47;97228.75;;;18.81;38.78
34983;BME280;21187;50.976;13.720;2022-09-16T15:35:49;97238.81;;;18.67;39.65
34983;BME280;21187;50.976;13.720;2022-09-16T15:41:01;97217.19;;;18.36;40.21
34983;BME280;21187;50.976;13.720;2022-09-16T15:46:14;97218.75;;;18.37;40.36
34983;BME280;21187;50.976;13.720;2022-09-16T15:51:43;97208.28;;;18.32;40.79
34983;BME280;21187;50.976;13.720;2022-09-16T15:57:01;97211.84;;;18.29;41.35
34983;BME280;21187;50.976;13.720;2022-09-16T16:02:20;97217.22;;;18.16;41.34
34983;BME280;21187;50.976;13.720;2022-09-16T16:07:51;97228.69;;;18.11;41.56
34983;BME280;21187;50.976;13.720;2022-09-16T16:12:53;97225.94;;;17.91;41.91
34983;BME280;21187;50.976;13.720;2022-09-16T16:17:58;97229.28;;;17.78;42.41
34983;BME280;21187;50.976;13.720;2022-09-16T16:23:00;97231.69;;;17.76;42.45
34983;BME280;21187;50.976;13.720;2022-09-16T16:28:03;97229.56;;;17.64;42.62
34983;BME280;21187;50.976;13.720;2022-09-16T16:33:07;97229.81;;;17.50;42.93
34983;BME280;21187;50.976;13.720;2022-09-16T16:38:09;97232.00;;;17.38;43.47
34983;BME280;21187;50.976;13.720;2022-09-16T16:43:11;97228.56;;;17.34;43.64
34983;BME280;21187;50.976;13.720;2022-09-16T16:48:13;97235.56;;;17.35;43.79
34983;BME280;21187;50.976;13.720;2022-09-16T16:53:15;97229.75;;;17.09;44.32
34983;BME280;21187;50.976;13.720;2022-09-16T16:58:17;97237.47;;;17.15;44.55
34983;BME280;21187;50.976;13.720;2022-09-16T17:03:19;97234.50;;;17.05;44.50
34983;BME280;21187;50.976;13.720;2022-09-16T17:08:23;97234.00;;;16.87;44.92
34983;BME280;21187;50.976;13.720;2022-09-16T17:13:25;97233.28;;;16.83;45.10
34983;BME280;21187;50.976;13.720;2022-09-16T17:18:26;97250.50;;;16.79;45.29
34983;BME280;21187;50.976;13.720;2022-09-16T17:23:28;97238.75;;;16.83;45.28
34983;BME280;21187;50.976;13.720;2022-09-16T17:28:31;97243.59;;;16.71;45.70
34983;BME280;21187;50.976;13.720;2022-09-16T17:33:33;97236.63;;;16.67;45.88
34983;BME280;21187;50.976;13.720;2022-09-16T17:38:35;97233.59;;;16.61;46.04
34983;BME280;21187;50.976;13.720;2022-09-16T17:43:37;97239.88;;;16.58;45.94
34983;BME280;21187;50.976;13.720;2022-09-16T17:48:41;97243.50;;;16.51;46.21
34983;BME280;21187;50.976;13.720;2022-09-16T17:53:44;97242.41;;;16.45;46.36
34983;BME280;21187;50.976;13.720;2022-09-16T17:58:46;97238.75;;;16.24;46.90
34983;BME280;21187;50.976;13.720;2022-09-16T18:03:51;97237.41;;;16.09;47.54
34983;BME280;21187;50.976;13.720;2022-09-16T18:08:54;97249.94;;;16.06;47.34
34983;BME280;21187;50.976;13.720;2022-09-16T18:13:58;97248.00;;;16.03;47.54
34983;BME280;21187;50.976;13.720;2022-09-16T18:19:01;97249.56;;;16.04;47.39
34983;BME280;21187;50.976;13.720;2022-09-16T18:24:04;97242.97;;;15.98;47.48
34983;BME280;21187;50.976;13.720;2022-09-16T18:29:12;97253.28;;;15.87;47.75
34983;BME280;21187;50.976;13.720;2022-09-16T18:34:15;97254.53;;;15.75;47.80
34983;BME280;21187;50.976;13.720;2022-09-16T18:39:18;97257.28;;;15.75;47.41
34983;BME280;21187;50.976;13.720;2022-09-16T18:44:21;97257.72;;;15.70;47.48
34983;BME280;21187;50.976;13.720;2022-09-16T18:49:27;97260.13;;;15.64;47.58
34983;BME280;21187;50.976;13.720;2022-09-16T18:54:30;97260.50;;;15.62;47.38
34983;BME280;21187;50.976;13.720;2022-09-16T18:59:34;97264.47;;;15.58;47.44
34983;BME280;21187;50.976;13.720;2022-09-16T19:04:39;97259.88;;;15.47;47.71
34983;BME280;21187;50.976;13.720;2022-09-16T19:09:43;97267.78;;;15.35;47.81
34983;BME280;21187;50.976;13.720;2022-09-16T19:14:46;97262.38;;;15.31;47.86
34983;BME280;21187;50.976;13.720;2022-09-16T19:19:48;97262.94;;;15.11;48.79
34983;BME280;21187;50.976;13.720;2022-09-16T19:24:51;97270.38;;;15.07;48.79
34983;BME280;21187;50.976;13.720;2022-09-16T19:29:54;97267.28;;;15.02;48.82
34983;BME280;21187;50.976;13.720;2022-09-16T19:34:56;97268.91;;;14.95;48.90
34983;BME280;21187;50.976;13.720;2022-09-16T19:39:58;97276.69;;;14.93;48.98
34983;BME280;21187;50.976;13.720;2022-09-16T19:45:00;97277.00;;;15.06;48.54
34983;BME280;21187;50.976;13.720;2022-09-16T19:50:02;97276.13;;;15.17;48.42
34983;BME280;21187;50.976;13.720;2022-09-16T19:55:04;97279.97;;;15.23;48.08
34983;BME280;21187;50.976;13.720;2022-09-16T20:00:07;97275.00;;;15.10;48.57
34983;BME280;21187;50.976;13.720;2022-09-16T20:05:14;97278.16;;;15.05;48.89
34983;BME280;21187;50.976;13.720;2022-09-16T20:10:16;97285.09;;;15.13;48.39
34983;BME280;21187;50.976;13.720;2022-09-16T20:15:18;97271.16;;;15.04;48.54
34983;BME280;21187;50.976;13.720;2022-09-16T20:20:20;97267.31;;;14.98;48.72
34983;BME280;21187;50.976;13.720;2022-09-16T20:25:22;97263.47;;;14.88;48.97
34983;BME280;21187;50.976;13.720;2022-09-16T20:30:24;97257.03;;;14.64;49.42
34983;BME280;21187;50.976;13.720;2022-09-16T20:35:26;97255.09;;;14.61;49.66
34983;BME280;21187;50.976;13.720;2022-09-16T20:40:28;97259.75;;;14.60;49.88
34983;BME280;21187;50.976;13.720;2022-09-16T20:45:30;97258.66;;;14.51;49.90
34983;BME280;21187;50.976;13.720;2022-09-16T20:50:35;97257.91;;;14.46;50.29
34983;BME280;21187;50.976;13.720;2022-09-16T20:55:39;97264.94;;;14.40;50.20
34983;BME280;21187;50.976;13.720;2022-09-16T21:00:40;97257.97;;;14.32;50.69
34983;BME280;21187;50.976;13.720;2022-09-16T21:05:42;97262.28;;;14.26;51.06
34983;BME280;21187;50.976;13.720;2022-09-16T21:10:44;97268.47;;;14.30;50.85
34983;BME280;21187;50.976;13.720;2022-09-16T21:15:56;97265.00;;;14.26;50.61
34983;BME280;21187;50.976;13.720;2022-09-16T21:21:07;97258.38;;;14.27;50.37
34983;BME280;21187;50.976;13.720;2022-09-16T21:26:11;97258.34;;;14.34;49.80
34983;BME280;21187;50.976;13.720;2022-09-16T21:31:14;97266.09;;;14.39;49.02
34983;BME280;21187;50.976;13.720;2022-09-16T21:36:17;97262.19;;;14.40;48.28
34983;BME280;21187;50.976;13.720;2022-09-16T21:41:20;97257.50;;;14.44;47.73
34983;BME280;21187;50.976;13.720;2022-09-16T21:46:28;97259.81;;;14.46;47.69
34983;BME280;21187;50.976;13.720;2022-09-16T21:51:32;97265.28;;;14.42;47.44
34983;BME280;21187;50.976;13.720;2022-09-16T21:56:37;97271.53;;;14.39;47.65
34983;BME280;21187;50.976;13.720;2022-09-16T22:01:39;97275.84;;;14.33;48.33
34983;BME280;21187;50.976;13.720;2022-09-16T22:06:41;97266.91;;;14.36;48.03
34983;BME280;21187;50.976;13.720;2022-09-16T22:11:43;97277.06;;;14.25;48.35
34983;BME280;21187;50.976;13.720;2022-09-16T22:16:45;97272.41;;;14.14;49.12
34983;BME280;21187;50.976;13.720;2022-09-16T22:21:49;97246.41;;;14.06;48.99
34983;BME280;21187;50.976;13.720;2022-09-16T22:26:51;97262.78;;;13.99;49.35
34983;BME280;21187;50.976;13.720;2022-09-16T22:31:53;97262.38;;;13.97;49.56
34983;BME280;21187;50.976;13.720;2022-09-16T22:36:55;97258.50;;;13.91;49.51
34983;BME280;21187;50.976;13.720;2022-09-16T22:41:56;97246.50;;;13.85;49.42
34983;BME280;21187;50.976;13.720;2022-09-16T22:46:58;97249.22;;;13.85;49.73
34983;BME280;21187;50.976;13.720;2022-09-16T22:52:01;97255.44;;;13.81;49.77
34983;BME280;21187;50.976;13.720;2022-09-16T22:57:03;97250.78;;;13.75;50.06
34983;BME280;21187;50.976;13.720;2022-09-16T23:02:05;97245.75;;;13.70;49.99
34983;BME280;21187;50.976;13.720;2022-09-16T23:07:07;97256.25;;;13.64;50.22
34983;BME280;21187;50.976;13.720;2022-09-16T23:12:10;97248.91;;;13.54;50.60
34983;BME280;21187;50.976;13.720;2022-09-16T23:17:16;97245.81;;;13.52;50.77
34983;BME280;21187;50.976;13.720;2022-09-16T23:22:18;97239.19;;;13.45;50.70
34983;BME280;21187;50.976;13.720;2022-09-16T23:27:20;97238.44;;;13.41;50.86
34983;BME280;21187;50.976;13.720;2022-09-16T23:32:21;97239.97;;;13.35;51.09
34983;BME280;21187;50.976;13.720;2022-09-16T23:37:23;97236.09;;;13.29;51.17
34983;BME280;21187;50.976;13.720;2022-09-16T23:42:25;97241.53;;;13.29;51.06
34983;BME280;21187;50.976;13.720;2022-09-16T23:47:28;97239.59;;;13.26;50.83
34983;BME280;21187;50.976;13.720;2022-09-16T23:52:30;97239.59;;;13.26;50.87
34983;BME280;21187;50.976;13.720;2022-09-16T23:57:31;97243.09;;;13.23;51.01
